createdAt,value
2017-11-24T00:00:28.044Z,9
2017-11-24T00:01:46.759Z,8.9
2017-11-24T00:03:05.470Z,8.9
2017-11-24T00:04:24.141Z,9
2017-11-24T00:05:42.798Z,9
2017-11-24T00:07:01.440Z,9.1
2017-11-24T00:08:20.146Z,9.1
2017-11-24T00:09:38.844Z,9.1
2017-11-24T00:10:57.547Z,9
2017-11-24T00:12:16.191Z,9.1
2017-11-24T00:13:34.839Z,9.1
2017-11-24T00:14:53.496Z,9.2
2017-11-24T00:16:12.168Z,9.3
2017-11-24T00:17:30.814Z,9.2
2017-11-24T00:18:49.471Z,9.3
2017-11-24T00:20:08.137Z,9.4
2017-11-24T00:21:26.828Z,9.4
2017-11-24T00:22:45.470Z,9.5
2017-11-24T00:24:04.147Z,9.5
2017-11-24T00:25:22.803Z,9.5
2017-11-24T00:26:41.469Z,9.5
2017-11-24T00:28:00.165Z,9.6
2017-11-24T00:29:18.815Z,9.6
2017-11-24T00:30:37.470Z,9.6
2017-11-24T00:31:56.154Z,9.7
2017-11-24T00:33:14.837Z,9.7
2017-11-24T00:34:33.483Z,9.7
2017-11-24T00:35:52.180Z,9.7
2017-11-24T00:37:10.832Z,9.6
2017-11-24T00:38:29.477Z,9.5
2017-11-24T00:39:48.151Z,9.5
2017-11-24T00:41:06.802Z,9.5
2017-11-24T00:42:25.520Z,9.5
2017-11-24T00:43:44.168Z,9.5
2017-11-24T00:45:02.811Z,9.5
2017-11-24T00:46:21.531Z,9.5
2017-11-24T00:47:40.236Z,9.5
2017-11-24T00:48:58.921Z,9.5
2017-11-24T00:50:17.570Z,9.4
2017-11-24T00:51:36.222Z,9.4
2017-11-24T00:52:54.942Z,9.4
2017-11-24T00:54:13.592Z,9.3
2017-11-24T00:55:32.239Z,9.3
2017-11-24T00:56:50.892Z,9.4
2017-11-24T00:58:09.549Z,9.5
2017-11-24T00:59:28.190Z,9.4
2017-11-24T01:00:46.843Z,9.4
2017-11-24T01:02:05.529Z,9.4
2017-11-24T01:03:24.208Z,9.3
2017-11-24T01:04:42.887Z,9.2
2017-11-24T01:06:01.562Z,9.2
2017-11-24T01:07:20.259Z,9.1
2017-11-24T01:08:38.910Z,9
2017-11-24T01:09:57.558Z,9
2017-11-24T01:11:16.216Z,9
2017-11-24T01:12:34.878Z,9
2017-11-24T01:13:53.586Z,8.9
2017-11-24T01:15:12.233Z,8.8
2017-11-24T01:16:30.917Z,8.8
2017-11-24T01:17:49.558Z,8.8
2017-11-24T01:19:08.238Z,8.9
2017-11-24T01:20:26.938Z,8.8
2017-11-24T01:21:45.582Z,8.7
2017-11-24T01:23:04.238Z,8.6
2017-11-24T01:24:22.890Z,8.6
2017-11-24T01:25:41.562Z,8.5
2017-11-24T01:27:00.212Z,8.5
2017-11-24T01:28:18.879Z,8.6
2017-11-24T01:29:37.546Z,8.6
2017-11-24T01:30:56.226Z,8.4
2017-11-24T01:32:14.871Z,8.2
2017-11-24T01:33:33.516Z,8.3
2017-11-24T01:34:52.189Z,8.2
2017-11-24T01:36:10.837Z,8
2017-11-24T01:37:29.530Z,8
2017-11-24T01:38:48.230Z,7.9
2017-11-24T01:40:06.913Z,8
2017-11-24T01:41:25.612Z,8.1
2017-11-24T01:42:44.262Z,8.2
2017-11-24T01:44:02.913Z,8.4
2017-11-24T01:45:21.569Z,8.4
2017-11-24T01:46:40.213Z,8.4
2017-11-24T01:47:58.880Z,8.5
2017-11-24T01:49:17.524Z,8.6
2017-11-24T01:50:36.294Z,8.8
2017-11-24T01:51:54.955Z,9
2017-11-24T01:53:13.644Z,9
2017-11-24T01:54:32.330Z,9
2017-11-24T01:55:50.979Z,9
2017-11-24T01:57:09.695Z,9
2017-11-24T01:58:28.376Z,8.9
2017-11-24T01:59:47.016Z,8.9
2017-11-24T02:01:05.680Z,8.8
2017-11-24T02:02:24.341Z,8.8
2017-11-24T02:03:43.005Z,8.8
2017-11-24T02:05:01.700Z,8.9
2017-11-24T02:06:20.374Z,8.8
2017-11-24T02:07:39.020Z,8.7
2017-11-24T02:08:57.662Z,8.5
2017-11-24T02:10:16.378Z,8.5
2017-11-24T02:11:35.088Z,8.5
2017-11-24T02:12:53.791Z,8.5
2017-11-24T02:14:12.446Z,8.5
2017-11-24T02:15:31.128Z,8.3
2017-11-24T02:16:49.780Z,8.3
2017-11-24T02:18:08.430Z,8.2
2017-11-24T02:19:27.130Z,8.2
2017-11-24T02:20:45.781Z,8.2
2017-11-24T02:22:04.459Z,8.1
2017-11-24T02:23:23.097Z,8.1
2017-11-24T02:24:41.797Z,8.3
2017-11-24T02:26:00.473Z,8.3
2017-11-24T02:27:19.167Z,8.2
2017-11-24T02:28:37.808Z,8
2017-11-24T02:29:56.466Z,7.9
2017-11-24T02:31:15.112Z,7.8
2017-11-24T02:32:33.779Z,7.8
2017-11-24T02:33:52.444Z,7.7
2017-11-24T02:35:11.125Z,7.7
2017-11-24T02:36:29.787Z,7.6
2017-11-24T02:37:48.470Z,7.6
2017-11-24T02:39:07.121Z,7.9
2017-11-24T02:40:25.828Z,7.8
2017-11-24T02:41:44.512Z,7.7
2017-11-24T02:43:03.230Z,7.7
2017-11-24T02:44:21.925Z,7.7
2017-11-24T02:45:40.630Z,7.7
2017-11-24T02:46:59.305Z,7.7
2017-11-24T02:48:17.973Z,7.8
2017-11-24T02:49:36.636Z,7.7
2017-11-24T02:50:55.308Z,7.7
2017-11-24T02:52:13.967Z,7.7
2017-11-24T02:53:32.660Z,7.9
2017-11-24T02:54:51.323Z,8
2017-11-24T02:56:10.039Z,8.1
2017-11-24T02:57:28.699Z,8.3
2017-11-24T02:58:47.394Z,8.3
2017-11-24T03:00:06.080Z,8.4
2017-11-24T03:01:24.785Z,8.4
2017-11-24T03:02:43.478Z,8.5
2017-11-24T03:04:02.156Z,8.4
2017-11-24T03:05:20.815Z,8.3
2017-11-24T03:06:39.466Z,8.2
2017-11-24T03:07:58.162Z,8.2
2017-11-24T03:09:16.902Z,8.1
2017-11-24T03:10:35.598Z,8.3
2017-11-24T03:11:54.287Z,8.3
2017-11-24T03:13:12.985Z,8.3
2017-11-24T03:14:31.660Z,8.2
2017-11-24T03:15:50.304Z,8.1
2017-11-24T03:17:08.949Z,7.9
2017-11-24T03:18:27.596Z,7.9
2017-11-24T03:19:46.255Z,7.9
2017-11-24T03:21:04.922Z,8.1
2017-11-24T03:22:23.580Z,8.2
2017-11-24T03:23:42.232Z,8.1
2017-11-24T03:25:00.940Z,8.1
2017-11-24T03:26:19.629Z,8.1
2017-11-24T03:27:38.298Z,8.1
2017-11-24T03:28:56.942Z,8.2
2017-11-24T03:30:15.597Z,8.3
2017-11-24T03:31:34.299Z,8.5
2017-11-24T03:32:52.945Z,8.7
2017-11-24T03:34:11.600Z,8.8
2017-11-24T03:35:30.273Z,8.9
2017-11-24T03:36:48.918Z,9
2017-11-24T03:38:07.562Z,9
2017-11-24T03:39:26.241Z,9.1
2017-11-24T03:40:44.958Z,9.1
2017-11-24T03:42:03.630Z,9.2
2017-11-24T03:43:22.273Z,9.2
2017-11-24T03:44:40.945Z,9.2
2017-11-24T03:45:59.659Z,9.2
2017-11-24T03:47:18.319Z,9.1
2017-11-24T03:48:36.973Z,9.2
2017-11-24T03:49:55.642Z,9.3
2017-11-24T03:51:14.302Z,9.3
2017-11-24T03:52:32.957Z,9.4
2017-11-24T03:53:51.629Z,9.5
2017-11-24T03:55:10.274Z,9.5
2017-11-24T03:56:28.963Z,9.4
2017-11-24T03:57:47.612Z,9.5
2017-11-24T03:59:06.257Z,9.5
2017-11-24T04:00:24.905Z,9.5
2017-11-24T04:01:43.611Z,9.6
2017-11-24T04:03:02.317Z,9.6
2017-11-24T04:04:20.969Z,9.6
2017-11-24T04:05:39.619Z,9.5
2017-11-24T04:06:58.287Z,9.5
2017-11-24T04:08:16.936Z,9.6
2017-11-24T04:09:35.628Z,9.6
2017-11-24T04:10:54.267Z,9.6
2017-11-24T04:12:12.946Z,9.5
2017-11-24T04:13:31.596Z,9.5
2017-11-24T04:14:50.237Z,9.5
2017-11-24T04:16:08.938Z,9.6
2017-11-24T04:17:27.607Z,9.6
2017-11-24T04:18:46.297Z,9.6
2017-11-24T04:20:04.943Z,9.4
2017-11-24T04:21:23.600Z,9.3
2017-11-24T04:22:42.256Z,9.2
2017-11-24T04:24:00.906Z,9.1
2017-11-24T04:25:19.607Z,9.1
2017-11-24T04:26:38.254Z,9.1
2017-11-24T04:27:56.918Z,9.1
2017-11-24T04:29:15.599Z,9.1
2017-11-24T04:30:34.249Z,9.1
2017-11-24T04:31:52.935Z,9
2017-11-24T04:33:11.596Z,8.9
2017-11-24T04:34:30.236Z,9
2017-11-24T04:35:48.935Z,8.9
2017-11-24T04:37:07.579Z,8.8
2017-11-24T04:38:26.275Z,8.7
2017-11-24T04:39:44.978Z,8.5
2017-11-24T04:41:03.660Z,8.4
2017-11-24T04:42:22.310Z,8.5
2017-11-24T04:43:40.989Z,8.5
2017-11-24T04:44:59.634Z,8.4
2017-11-24T04:46:18.315Z,8.5
2017-11-24T04:47:36.960Z,8.6
2017-11-24T04:48:55.651Z,8.5
2017-11-24T04:50:14.320Z,8.5
2017-11-24T04:51:32.966Z,8.9
2017-11-24T04:52:51.676Z,9.2
2017-11-24T04:54:10.340Z,9.3
2017-11-24T04:55:29.007Z,9.3
2017-11-24T04:56:47.683Z,9.3
2017-11-24T04:58:06.340Z,9.3
2017-11-24T04:59:25.018Z,9.3
2017-11-24T05:00:43.669Z,9.2
2017-11-24T05:02:02.350Z,9
2017-11-24T05:03:21.001Z,8.9
2017-11-24T05:04:39.666Z,9
2017-11-24T05:05:58.310Z,9.1
2017-11-24T05:07:16.951Z,9.1
2017-11-24T05:08:35.637Z,9
2017-11-24T05:09:54.285Z,8.9
2017-11-24T05:11:12.990Z,8.7
2017-11-24T05:12:31.641Z,8.6
2017-11-24T05:13:50.302Z,8.5
2017-11-24T05:15:08.991Z,8.6
2017-11-24T05:16:27.637Z,8.6
2017-11-24T05:17:46.281Z,8.5
2017-11-24T05:19:04.928Z,8.6
2017-11-24T05:20:23.585Z,8.7
2017-11-24T05:21:42.241Z,8.7
2017-11-24T05:23:00.893Z,8.6
2017-11-24T05:24:19.542Z,8.5
2017-11-24T05:25:38.209Z,8.4
2017-11-24T05:26:56.849Z,8.3
2017-11-24T05:28:15.547Z,8.4
2017-11-24T05:29:34.217Z,8.6
2017-11-24T05:30:52.881Z,8.6
2017-11-24T05:32:11.532Z,8.5
2017-11-24T05:33:30.192Z,8.3
2017-11-24T05:34:48.897Z,8.3
2017-11-24T05:36:07.616Z,8.3
2017-11-24T05:37:26.286Z,8.4
2017-11-24T05:38:44.927Z,8.3
2017-11-24T05:40:03.608Z,8.3
2017-11-24T05:41:22.275Z,8.3
2017-11-24T05:42:40.962Z,8.2
2017-11-24T05:43:59.649Z,8.2
2017-11-24T05:45:18.353Z,8.1
2017-11-24T05:46:37.022Z,8.2
2017-11-24T05:47:55.674Z,8.2
2017-11-24T05:49:14.324Z,8.4
2017-11-24T05:50:33.014Z,8.3
2017-11-24T05:51:51.673Z,8.2
2017-11-24T05:53:10.407Z,8.1
2017-11-24T05:54:29.060Z,8
2017-11-24T05:55:47.703Z,8
2017-11-24T05:57:06.373Z,8.3
2017-11-24T05:58:25.028Z,8.4
2017-11-24T05:59:43.701Z,8.3
2017-11-24T06:01:02.372Z,8.3
2017-11-24T06:02:21.047Z,8.4
2017-11-24T06:03:39.748Z,8.5
2017-11-24T06:04:58.394Z,8.7
2017-11-24T06:06:17.046Z,8.9
2017-11-24T06:07:35.725Z,9
2017-11-24T06:08:54.384Z,9.3
2017-11-24T06:10:13.088Z,9.4
2017-11-24T06:11:31.754Z,9.5
2017-11-24T06:12:50.437Z,9.6
2017-11-24T06:14:09.089Z,9.6
2017-11-24T06:15:27.778Z,9.6
2017-11-24T06:16:46.435Z,9.5
2017-11-24T06:18:05.147Z,9.6
2017-11-24T06:19:23.857Z,9.4
2017-11-24T06:20:42.533Z,9.4
2017-11-24T06:22:01.236Z,9.5
2017-11-24T06:23:19.899Z,9.6
2017-11-24T06:24:38.601Z,9.6
2017-11-24T06:25:57.273Z,9.7
2017-11-24T06:27:15.936Z,9.7
2017-11-24T06:28:34.598Z,9.6
2017-11-24T06:29:53.246Z,9.5
2017-11-24T06:31:11.944Z,9.5
2017-11-24T06:32:30.629Z,9.4
2017-11-24T06:33:49.303Z,9.5
2017-11-24T06:35:07.952Z,9.4
2017-11-24T06:36:26.603Z,9.4
2017-11-24T06:37:45.285Z,9.5
2017-11-24T06:39:03.995Z,9.3
2017-11-24T06:40:22.634Z,9.3
2017-11-24T06:41:41.320Z,9.3
2017-11-24T06:42:59.985Z,9.3
2017-11-24T06:44:18.693Z,9.2
2017-11-24T06:45:37.341Z,9.3
2017-11-24T06:46:56.001Z,9.3
2017-11-24T06:48:14.679Z,9.2
2017-11-24T06:49:33.417Z,9.2
2017-11-24T06:50:52.085Z,9.1
2017-11-24T06:52:10.749Z,9.1
2017-11-24T06:53:29.442Z,9.1
2017-11-24T06:54:48.089Z,8.9
2017-11-24T06:56:06.743Z,8.8
2017-11-24T06:57:25.384Z,8.7
2017-11-24T06:58:44.027Z,8.8
2017-11-24T07:00:02.686Z,8.8
2017-11-24T07:01:21.340Z,8.8
2017-11-24T07:02:40.038Z,8.9
2017-11-24T07:03:58.682Z,8.9
2017-11-24T07:05:17.370Z,8.9
2017-11-24T07:06:36.012Z,8.9
2017-11-24T07:07:54.686Z,8.9
2017-11-24T07:09:13.391Z,8.9
2017-11-24T07:10:32.057Z,9
2017-11-24T07:11:50.757Z,9.1
2017-11-24T07:13:09.399Z,9.3
2017-11-24T07:14:28.044Z,9.5
2017-11-24T07:15:46.713Z,9.6
2017-11-24T07:17:05.369Z,9.7
2017-11-24T07:18:24.014Z,9.7
2017-11-24T07:19:42.663Z,9.7
2017-11-24T07:21:01.338Z,9.6
2017-11-24T07:22:20.014Z,9.6
2017-11-24T07:23:38.700Z,9.5
2017-11-24T07:24:57.408Z,9.4
2017-11-24T07:26:16.076Z,9.3
2017-11-24T07:27:34.798Z,9.2
2017-11-24T07:28:53.472Z,9.2
2017-11-24T07:30:12.123Z,9.3
2017-11-24T07:31:30.795Z,9.2
2017-11-24T07:32:49.462Z,9
2017-11-24T07:34:08.112Z,8.9
2017-11-24T07:35:26.775Z,8.8
2017-11-24T07:36:45.455Z,8.7
2017-11-24T07:38:04.128Z,8.7
2017-11-24T07:39:22.788Z,8.7
2017-11-24T07:40:41.430Z,8.8
2017-11-24T07:42:00.083Z,8.9
2017-11-24T07:43:18.758Z,9
2017-11-24T07:44:37.408Z,9.1
2017-11-24T07:45:56.061Z,9.3
2017-11-24T07:47:14.771Z,9.4
2017-11-24T07:48:33.426Z,9.5
2017-11-24T07:49:52.110Z,9.6
2017-11-24T07:51:10.782Z,9.7
2017-11-24T07:52:29.463Z,9.7
2017-11-24T07:53:48.161Z,9.6
2017-11-24T07:55:06.802Z,9.5
2017-11-24T07:56:25.458Z,9.3
2017-11-24T07:57:44.118Z,9.2
2017-11-24T07:59:02.765Z,9.1
2017-11-24T08:00:21.414Z,8.9
2017-11-24T08:01:40.079Z,8.7
2017-11-24T08:02:58.739Z,8.6
2017-11-24T08:04:17.384Z,8.6
2017-11-24T08:05:36.028Z,8.5
2017-11-24T08:06:54.699Z,8.6
2017-11-24T08:08:13.361Z,8.7
2017-11-24T08:09:32.062Z,8.7
2017-11-24T08:10:50.706Z,8.7
2017-11-24T08:12:09.351Z,8.8
2017-11-24T08:13:28.071Z,8.8
2017-11-24T08:14:46.741Z,8.8
2017-11-24T08:16:05.406Z,9
2017-11-24T08:17:24.069Z,9
2017-11-24T08:18:42.737Z,8.9
2017-11-24T08:20:01.385Z,8.8
2017-11-24T08:21:20.034Z,8.7
2017-11-24T08:22:38.690Z,8.7
2017-11-24T08:23:57.375Z,8.9
2017-11-24T08:25:16.024Z,9
2017-11-24T08:26:34.712Z,9
2017-11-24T08:27:53.368Z,9
2017-11-24T08:29:12.029Z,9.3
2017-11-24T08:30:30.698Z,9.5
2017-11-24T08:31:49.342Z,9.5
2017-11-24T08:33:08.042Z,9.3
2017-11-24T08:34:26.733Z,9.3
2017-11-24T08:35:45.377Z,9.2
2017-11-24T08:37:04.035Z,8.9
2017-11-24T08:38:22.688Z,8.7
2017-11-24T08:39:41.376Z,8.5
2017-11-24T08:41:00.024Z,8.5
2017-11-24T08:42:18.666Z,8.4
2017-11-24T08:43:37.310Z,8.5
2017-11-24T08:44:56.025Z,8.7
2017-11-24T08:46:14.721Z,8.9
2017-11-24T08:47:33.371Z,9.1
2017-11-24T08:48:52.055Z,9.3
2017-11-24T08:50:10.739Z,9.4
2017-11-24T08:51:29.455Z,9.3
2017-11-24T08:52:48.107Z,9.3
2017-11-24T08:54:06.753Z,9.1
2017-11-24T08:55:25.450Z,9
2017-11-24T08:56:44.152Z,8.8
2017-11-24T08:58:02.857Z,8.7
2017-11-24T08:59:21.561Z,8.8
2017-11-24T09:00:40.252Z,8.8
2017-11-24T09:01:58.908Z,9
2017-11-24T09:03:17.576Z,9.1
2017-11-24T09:04:36.217Z,9.1
2017-11-24T09:05:54.882Z,9.1
2017-11-24T09:07:13.532Z,9.1
2017-11-24T09:08:32.180Z,9.1
2017-11-24T09:09:50.825Z,8.9
2017-11-24T09:11:09.521Z,8.8
2017-11-24T09:12:28.162Z,8.8
2017-11-24T09:13:46.831Z,9.1
2017-11-24T09:15:05.519Z,9.3
2017-11-24T09:16:24.251Z,9.6
2017-11-24T09:17:42.905Z,9.6
2017-11-24T09:19:01.587Z,9.5
2017-11-24T09:20:20.242Z,9.4
2017-11-24T09:21:38.954Z,9.3
2017-11-24T09:22:57.601Z,9.3
2017-11-24T09:24:16.259Z,9.2
2017-11-24T09:25:34.922Z,9.3
2017-11-24T09:26:53.635Z,9.3
2017-11-24T09:28:12.300Z,9.4
2017-11-24T09:29:30.986Z,9.5
2017-11-24T09:30:49.626Z,9.5
2017-11-24T09:32:08.281Z,9.5
2017-11-24T09:33:26.933Z,9.3
2017-11-24T09:34:45.623Z,9.3
2017-11-24T09:36:04.361Z,9.2
2017-11-24T09:37:23.051Z,9.2
2017-11-24T09:38:41.741Z,9.2
2017-11-24T09:40:00.395Z,9.3
2017-11-24T09:41:19.045Z,9.4
2017-11-24T09:42:37.773Z,9.5
2017-11-24T09:43:56.415Z,9.4
2017-11-24T09:45:15.063Z,9.3
2017-11-24T09:46:33.703Z,9.4
2017-11-24T09:47:52.358Z,9.5
2017-11-24T09:49:11.052Z,9.5
2017-11-24T09:50:29.692Z,9.4
2017-11-24T09:51:48.340Z,9.3
2017-11-24T09:53:06.996Z,9.3
2017-11-24T09:54:25.682Z,9.3
2017-11-24T09:55:44.356Z,9.5
2017-11-24T09:57:03.047Z,9.6
2017-11-24T09:58:21.712Z,9.9
2017-11-24T09:59:40.413Z,9.9
2017-11-24T10:00:59.084Z,10.1
2017-11-24T10:02:17.754Z,10
2017-11-24T10:03:36.743Z,10.1
2017-11-24T10:04:55.440Z,10.2
2017-11-24T10:06:14.127Z,10.2
2017-11-24T10:07:32.772Z,9.9
2017-11-24T10:08:51.465Z,9.7
2017-11-24T10:10:10.111Z,9.6
2017-11-24T10:11:28.750Z,9.5
2017-11-24T10:12:47.419Z,9.4
2017-11-24T10:14:06.131Z,9.3
2017-11-24T10:15:24.785Z,9.3
2017-11-24T10:16:43.438Z,9.3
2017-11-24T10:18:02.080Z,9.3
2017-11-24T10:19:20.728Z,9.4
2017-11-24T10:20:39.378Z,9.4
2017-11-24T10:21:58.033Z,9.5
2017-11-24T10:23:16.701Z,9.6
2017-11-24T10:24:35.360Z,9.7
2017-11-24T10:25:54.029Z,9.8
2017-11-24T10:27:12.676Z,9.9
2017-11-24T10:28:31.346Z,10
2017-11-24T10:29:50.055Z,10
2017-11-24T10:31:08.721Z,10
2017-11-24T10:32:27.437Z,10
2017-11-24T10:33:46.099Z,10
2017-11-24T10:35:04.774Z,9.9
2017-11-24T10:36:23.431Z,9.8
2017-11-24T10:37:42.080Z,9.8
2017-11-24T10:39:00.782Z,9.8
2017-11-24T10:40:19.487Z,9.8
2017-11-24T10:41:38.146Z,9.8
2017-11-24T10:42:56.800Z,9.8
2017-11-24T10:44:15.463Z,9.8
2017-11-24T10:45:34.169Z,9.8
2017-11-24T10:46:52.811Z,9.8
2017-11-24T10:48:11.501Z,9.8
2017-11-24T10:49:30.144Z,9.9
2017-11-24T10:50:48.808Z,9.9
2017-11-24T10:52:07.488Z,9.9
2017-11-24T10:53:26.132Z,9.9
2017-11-24T10:54:44.781Z,9.9
2017-11-24T10:56:03.435Z,9.9
2017-11-24T10:57:22.094Z,9.9
2017-11-24T10:58:40.761Z,10
2017-11-24T10:59:59.441Z,10
2017-11-24T11:01:18.172Z,10
2017-11-24T11:02:36.831Z,10.1
2017-11-24T11:03:55.490Z,10.1
2017-11-24T11:05:14.197Z,10.1
2017-11-24T11:06:32.884Z,10.1
2017-11-24T11:07:51.607Z,10.1
2017-11-24T11:09:10.307Z,10.1
2017-11-24T11:10:28.991Z,10.1
2017-11-24T11:11:47.702Z,10.1
2017-11-24T11:13:06.361Z,10.2
2017-11-24T11:14:25.018Z,10.2
2017-11-24T11:15:43.736Z,10.3
2017-11-24T11:17:02.417Z,10.3
2017-11-24T11:18:21.100Z,10.3
2017-11-24T11:19:39.770Z,10.4
2017-11-24T11:20:58.428Z,10.4
2017-11-24T11:22:17.150Z,10.4
2017-11-24T11:23:35.821Z,10.5
2017-11-24T11:24:54.503Z,10.6
2017-11-24T11:26:13.160Z,10.7
2017-11-24T11:27:31.853Z,10.7
2017-11-24T11:28:50.573Z,10.8
2017-11-24T11:30:09.256Z,10.9
2017-11-24T11:31:27.957Z,10.9
2017-11-24T11:32:46.634Z,11
2017-11-24T11:34:05.338Z,11
2017-11-24T11:35:24.027Z,11.1
2017-11-24T11:36:42.703Z,11.1
2017-11-24T11:38:01.391Z,11.2
2017-11-24T11:39:20.059Z,11.2
2017-11-24T11:40:38.740Z,11.2
2017-11-24T11:41:57.406Z,11.3
2017-11-24T11:43:16.085Z,11.3
2017-11-24T11:44:34.744Z,11.4
2017-11-24T11:45:53.434Z,11.5
2017-11-24T11:47:12.168Z,11.4
2017-11-24T11:48:30.836Z,11.5
2017-11-24T11:49:49.500Z,11.5
2017-11-24T11:51:08.214Z,11.5
2017-11-24T11:52:26.894Z,11.5
2017-11-24T11:53:45.607Z,11.5
2017-11-24T11:55:04.273Z,11.6
2017-11-24T11:56:22.971Z,11.6
2017-11-24T11:57:41.627Z,11.7
2017-11-24T11:59:00.309Z,11.7
2017-11-24T12:00:18.979Z,11.8
2017-11-24T12:01:37.651Z,11.7
2017-11-24T12:02:56.360Z,11.8
2017-11-24T12:04:15.050Z,11.8
2017-11-24T12:05:33.760Z,12.1
2017-11-24T12:06:52.422Z,12.1
2017-11-24T12:08:11.078Z,12.1
2017-11-24T12:09:29.747Z,12.2
2017-11-24T12:10:48.407Z,12.4
2017-11-24T12:12:07.154Z,12.6
2017-11-24T12:13:25.878Z,12.8
2017-11-24T12:14:44.566Z,12.8
2017-11-24T12:16:03.257Z,12.8
2017-11-24T12:17:21.927Z,12.6
2017-11-24T12:18:40.660Z,12.5
2017-11-24T12:19:59.383Z,12.7
2017-11-24T12:21:18.039Z,13
2017-11-24T12:22:36.701Z,13.2
2017-11-24T12:23:55.367Z,13.2
2017-11-24T12:25:14.092Z,13.3
2017-11-24T12:26:32.751Z,13.2
2017-11-24T12:27:51.410Z,13.1
2017-11-24T12:29:10.075Z,13
2017-11-24T12:30:28.768Z,13.3
2017-11-24T12:31:47.426Z,13
2017-11-24T12:33:06.145Z,12.8
2017-11-24T12:34:24.822Z,12.5
2017-11-24T12:35:43.523Z,12.5
2017-11-24T12:37:02.242Z,12.5
2017-11-24T12:38:20.955Z,12.4
2017-11-24T12:39:39.615Z,12.3
2017-11-24T12:40:58.296Z,12.3
2017-11-24T12:42:17.022Z,12.2
2017-11-24T12:43:35.704Z,12.2
2017-11-24T12:44:54.389Z,12.2
2017-11-24T12:46:13.068Z,12.1
2017-11-24T12:47:31.761Z,12.2
2017-11-24T12:48:50.487Z,12.2
2017-11-24T12:50:09.165Z,12.1
2017-11-24T12:51:27.903Z,12.1
2017-11-24T12:52:46.567Z,12
2017-11-24T12:54:05.227Z,12
2017-11-24T12:55:23.898Z,12.1
2017-11-24T12:56:42.563Z,12
2017-11-24T12:58:01.249Z,12
2017-11-24T12:59:19.922Z,11.9
2017-11-24T13:00:38.651Z,11.8
2017-11-24T13:01:57.327Z,11.8
2017-11-24T13:03:16.045Z,11.8
2017-11-24T13:04:34.722Z,11.8
2017-11-24T13:05:53.510Z,11.9
2017-11-24T13:07:12.230Z,12
2017-11-24T13:08:30.931Z,12
2017-11-24T13:09:49.604Z,12.2
2017-11-24T13:11:08.271Z,12.2
2017-11-24T13:12:26.963Z,12.3
2017-11-24T13:13:45.671Z,12.4
2017-11-24T13:15:04.353Z,12.5
2017-11-24T13:16:23.031Z,12.3
2017-11-24T13:17:41.758Z,12.3
2017-11-24T13:19:00.471Z,12.2
2017-11-24T13:20:19.169Z,12.2
2017-11-24T13:21:37.914Z,12.2
2017-11-24T13:22:56.630Z,12.2
2017-11-24T13:24:15.321Z,12.3
2017-11-24T13:25:33.978Z,12.3
2017-11-24T13:26:52.684Z,12.4
2017-11-24T13:28:11.367Z,12.3
2017-11-24T13:29:30.042Z,12.4
2017-11-24T13:30:48.796Z,12.2
2017-11-24T13:32:07.469Z,12.2
2017-11-24T13:33:26.175Z,12.2
2017-11-24T13:34:44.841Z,12.2
2017-11-24T13:36:03.554Z,12.3
2017-11-24T13:37:22.268Z,12.3
2017-11-24T13:38:40.949Z,12.2
2017-11-24T13:39:59.613Z,12.2
2017-11-24T13:41:18.308Z,12.2
2017-11-24T13:42:36.971Z,12.3
2017-11-24T13:43:55.696Z,12.3
2017-11-24T13:45:14.361Z,12.1
2017-11-24T13:46:33.019Z,12
2017-11-24T13:47:51.750Z,12
2017-11-24T13:49:10.433Z,11.9
2017-11-24T13:50:29.133Z,11.8
2017-11-24T13:51:47.788Z,11.8
2017-11-24T13:53:06.478Z,11.7
2017-11-24T13:54:25.151Z,11.7
2017-11-24T13:55:43.807Z,11.7
2017-11-24T13:57:02.470Z,11.8
2017-11-24T13:58:21.133Z,11.7
2017-11-24T13:59:39.870Z,11.7
2017-11-24T14:00:58.537Z,11.7
2017-11-24T14:02:17.191Z,11.7
2017-11-24T14:03:35.865Z,11.7
2017-11-24T14:04:54.548Z,11.6
2017-11-24T14:06:13.236Z,11.6
2017-11-24T14:07:31.921Z,11.5
2017-11-24T14:08:50.649Z,11.5
2017-11-24T14:10:09.375Z,11.5
2017-11-24T14:11:28.050Z,11.4
2017-11-24T14:12:46.710Z,11.4
2017-11-24T14:14:05.375Z,11.4
2017-11-24T14:15:24.064Z,11.4
2017-11-24T14:16:42.730Z,11.4
2017-11-24T14:18:01.418Z,11.4
2017-11-24T14:19:20.086Z,11.3
2017-11-24T14:20:38.817Z,11.3
2017-11-24T14:21:57.508Z,11.3
2017-11-24T14:23:16.169Z,11.4
2017-11-24T14:24:34.839Z,11.3
2017-11-24T14:25:53.533Z,11.3
2017-11-24T14:27:12.224Z,11.3
2017-11-24T14:28:30.922Z,11.2
2017-11-24T14:29:49.603Z,11.2
2017-11-24T14:31:08.313Z,11.1
2017-11-24T14:32:26.983Z,11.1
2017-11-24T14:33:45.654Z,11.1
2017-11-24T14:35:04.316Z,11
2017-11-24T14:36:23.010Z,11
2017-11-24T14:37:41.682Z,11
2017-11-24T14:39:00.352Z,11
2017-11-24T14:40:19.043Z,11
2017-11-24T14:41:37.770Z,11
2017-11-24T14:42:56.507Z,11
2017-11-24T14:44:15.192Z,11
2017-11-24T14:45:33.862Z,11
2017-11-24T14:46:52.529Z,10.9
2017-11-24T14:48:11.219Z,10.9
2017-11-24T14:49:29.883Z,10.9
2017-11-24T14:50:48.548Z,10.9
2017-11-24T14:52:07.217Z,10.9
2017-11-24T14:53:25.880Z,10.8
2017-11-24T14:54:44.550Z,10.7
2017-11-24T14:56:03.244Z,10.8
2017-11-24T14:57:21.920Z,10.8
2017-11-24T14:58:40.576Z,10.7
2017-11-24T14:59:59.236Z,10.8
2017-11-24T15:01:17.917Z,10.8
2017-11-24T15:02:36.646Z,10.9
2017-11-24T15:03:55.346Z,10.9
2017-11-24T15:05:14.065Z,10.8
2017-11-24T15:06:32.733Z,10.8
2017-11-24T15:07:51.427Z,10.8
2017-11-24T15:09:10.135Z,10.8
2017-11-24T15:10:28.796Z,10.8
2017-11-24T15:11:47.523Z,10.8
2017-11-24T15:13:06.248Z,10.8
2017-11-24T15:14:24.920Z,10.8
2017-11-24T15:15:43.631Z,10.8
2017-11-24T15:17:02.292Z,10.8
2017-11-24T15:18:20.967Z,10.8
2017-11-24T15:19:39.646Z,10.8
2017-11-24T15:20:58.312Z,10.8
2017-11-24T15:22:17.030Z,10.8
2017-11-24T15:23:35.759Z,10.8
2017-11-24T15:24:54.426Z,10.8
2017-11-24T15:26:13.107Z,10.8
2017-11-24T15:27:31.782Z,10.8
2017-11-24T15:28:50.457Z,10.8
2017-11-24T15:30:09.125Z,10.8
2017-11-24T15:31:27.814Z,10.8
2017-11-24T15:32:46.480Z,10.8
2017-11-24T15:34:05.196Z,10.8
2017-11-24T15:35:23.861Z,10.8
2017-11-24T15:36:42.519Z,10.9
2017-11-24T15:38:01.235Z,10.9
2017-11-24T15:39:19.901Z,10.9
2017-11-24T15:40:38.558Z,10.9
2017-11-24T15:41:57.226Z,10.9
2017-11-24T15:43:15.962Z,10.9
2017-11-24T15:44:34.701Z,10.9
2017-11-24T15:45:53.374Z,10.8
2017-11-24T15:47:12.042Z,10.8
2017-11-24T15:48:30.712Z,10.8
2017-11-24T15:49:49.442Z,10.8
2017-11-24T15:51:08.135Z,10.8
2017-11-24T15:52:26.855Z,10.8
2017-11-24T15:53:45.564Z,10.8
2017-11-24T15:55:04.238Z,10.7
2017-11-24T15:56:22.971Z,10.6
2017-11-24T15:57:41.638Z,10.6
2017-11-24T15:59:00.319Z,10.6
2017-11-24T16:00:19.040Z,10.6
2017-11-24T16:01:37.731Z,10.6
2017-11-24T16:02:56.400Z,10.6
2017-11-24T16:04:15.108Z,10.6
2017-11-24T16:05:33.792Z,10.6
2017-11-24T16:06:52.486Z,10.6
2017-11-24T16:08:11.171Z,10.6
2017-11-24T16:09:29.837Z,10.6
2017-11-24T16:10:48.519Z,10.5
2017-11-24T16:12:07.183Z,10.4
2017-11-24T16:13:25.870Z,10.4
2017-11-24T16:14:44.555Z,10.3
2017-11-24T16:16:03.240Z,10.3
2017-11-24T16:17:21.909Z,10.4
2017-11-24T16:18:40.577Z,10.4
2017-11-24T16:19:59.286Z,10.4
2017-11-24T16:21:17.969Z,10.4
2017-11-24T16:22:36.685Z,10.4
2017-11-24T16:23:55.378Z,10.4
2017-11-24T16:25:14.049Z,10.5
2017-11-24T16:26:32.786Z,10.5
2017-11-24T16:27:51.496Z,10.6
2017-11-24T16:29:10.202Z,10.6
2017-11-24T16:30:28.888Z,10.6
2017-11-24T16:31:47.593Z,10.5
2017-11-24T16:33:06.260Z,10.5
2017-11-24T16:34:24.975Z,10.6
2017-11-24T16:35:43.638Z,10.6
2017-11-24T16:37:02.319Z,10.5
2017-11-24T16:38:21.043Z,10.5
2017-11-24T16:39:39.701Z,10.5
2017-11-24T16:40:58.362Z,10.4
2017-11-24T16:42:17.080Z,10.3
2017-11-24T16:43:35.789Z,10.2
2017-11-24T16:44:54.460Z,10.1
2017-11-24T16:46:13.135Z,10.1
2017-11-24T16:47:31.829Z,10.1
2017-11-24T16:48:50.528Z,10.1
2017-11-24T16:50:09.194Z,10.1
2017-11-24T16:51:27.855Z,10
2017-11-24T16:52:46.521Z,10
2017-11-24T16:54:05.204Z,10
2017-11-24T16:55:23.896Z,9.9
2017-11-24T16:56:42.587Z,9.8
2017-11-24T16:58:01.262Z,9.6
2017-11-24T16:59:19.932Z,9.3
2017-11-24T17:00:38.572Z,9.2
2017-11-24T17:01:57.279Z,9.1
2017-11-24T17:03:15.944Z,9.1
2017-11-24T17:04:34.618Z,9.2
2017-11-24T17:05:53.267Z,9.1
2017-11-24T17:07:11.907Z,9.1
2017-11-24T17:08:30.569Z,9.1
2017-11-24T17:09:49.220Z,9
2017-11-24T17:11:07.894Z,9
2017-11-24T17:12:26.543Z,9
2017-11-24T17:13:45.187Z,9
2017-11-24T17:15:03.849Z,8.9
2017-11-24T17:16:22.525Z,8.8
2017-11-24T17:17:41.175Z,8.7
2017-11-24T17:18:59.820Z,8.6
2017-11-24T17:20:18.493Z,8.5
2017-11-24T17:21:37.140Z,8.5
2017-11-24T17:22:55.844Z,8.5
2017-11-24T17:24:14.490Z,8.5
2017-11-24T17:25:33.165Z,8.5
2017-11-24T17:26:51.816Z,8.6
2017-11-24T17:28:10.468Z,8.6
2017-11-24T17:29:29.120Z,8.5
2017-11-24T17:30:47.847Z,8.6
2017-11-24T17:32:06.497Z,8.6
2017-11-24T17:33:25.211Z,8.7
2017-11-24T17:34:43.853Z,8.7
2017-11-24T17:36:02.530Z,8.6
2017-11-24T17:37:21.219Z,8.6
2017-11-24T17:38:39.868Z,8.6
2017-11-24T17:39:58.509Z,8.5
2017-11-24T17:41:17.185Z,8.6
2017-11-24T17:42:35.907Z,8.7
2017-11-24T17:43:54.611Z,8.6
2017-11-24T17:45:13.254Z,8.6
2017-11-24T17:46:31.922Z,8.6
2017-11-24T17:47:50.581Z,8.6
2017-11-24T17:49:09.236Z,8.6
2017-11-24T17:50:27.895Z,8.7
2017-11-24T17:51:46.557Z,8.7
2017-11-24T17:53:05.278Z,8.6
2017-11-24T17:54:23.943Z,8.6
2017-11-24T17:55:42.626Z,8.6
2017-11-24T17:57:01.286Z,8.6